Time;durP1;ratioP1;P1;durP2;ratioP2;P2;SDS_P1;SDS_P2;PMS_P1;PMS_P2;Temp;Humidity;BMP_temperature;BMP_pressure;BME280_temperature;BME280_humidity;BME280_pressure;Samples;Min_cycle;Max_cycle;Signal;HPM_P1;HPM_P2
2022/05/05 00:00:06;;;;;;;9.33;6.80;;;14.20;93.60;;;;;;7375641;19;20965;-47
2022/05/05 00:02:38;;;;;;;10.17;7.13;;;14.20;93.40;;;;;;7373992;19;20383;-49
2022/05/05 00:05:09;;;;;;;9.20;6.60;;;14.00;93.60;;;;;;7374755;19;20898;-47
2022/05/05 00:07:39;;;;;;;8.90;6.80;;;13.90;94.20;;;;;;7378435;19;21018;-47
2022/05/05 00:15:38;;;;;;;7.00;6.30;;;14.00;94.20;;;;;;7372421;19;20372;-47
2022/05/05 00:18:11;;;;;;;7.47;5.60;;;14.10;94.20;;;;;;7372480;19;20436;-48
2022/05/05 00:20:43;;;;;;;8.53;5.97;;;14.20;93.80;;;;;;7376677;19;20552;-48
2022/05/05 00:23:14;;;;;;;7.07;6.00;;;14.20;93.50;;;;;;7373036;19;21046;-49
2022/05/05 00:25:44;;;;;;;6.50;5.77;;;14.10;93.90;;;;;;7371139;19;20668;-48
2022/05/05 00:28:18;;;;;;;7.17;6.47;;;14.10;94.00;;;;;;7376472;19;20384;-48
2022/05/05 00:30:50;;;;;;;6.97;5.70;;;14.20;94.00;;;;;;7376412;19;20769;-48
2022/05/05 00:33:22;;;;;;;6.50;5.90;;;14.20;94.10;;;;;;7374592;19;20379;-48
2022/05/05 00:35:54;;;;;;;6.70;6.00;;;14.30;93.90;;;;;;7374380;19;20408;-48
2022/05/05 00:38:24;;;;;;;7.53;5.70;;;14.30;93.40;;;;;;7374439;19;20384;-48
2022/05/05 00:40:53;;;;;;;7.47;6.27;;;14.40;93.20;;;;;;7371646;19;20419;-49
2022/05/05 00:43:23;;;;;;;6.10;5.60;;;14.40;93.30;;;;;;7374082;19;20412;-48
2022/05/05 00:45:53;;;;;;;6.77;6.07;;;14.30;93.50;;;;;;7373803;19;20409;-48
2022/05/05 00:48:27;;;;;;;5.97;5.30;;;14.40;93.40;;;;;;7368317;19;20384;-48
2022/05/05 00:50:59;;;;;;;6.40;5.40;;;14.30;93.70;;;;;;7372322;19;20376;-46
2022/05/05 00:53:30;;;;;;;6.87;6.17;;;14.10;93.80;;;;;;7376337;19;20643;-48
2022/05/05 00:56:09;;;;;;;7.40;5.23;;;14.00;94.10;;;;;;7368738;19;20517;-48
2022/05/05 00:58:40;;;;;;;5.63;5.07;;;14.00;94.10;;;;;;7375650;19;21061;-46
2022/05/05 01:01:10;;;;;;;7.00;6.27;;;13.90;94.20;;;;;;7374302;19;21100;-48
2022/05/05 01:03:42;;;;;;;7.40;6.60;;;14.00;94.10;;;;;;7373934;19;20407;-48
2022/05/05 01:06:15;;;;;;;6.80;6.10;;;14.10;94.00;;;;;;7373084;19;20424;-50
2022/05/05 01:08:45;;;;;;;6.00;5.40;;;14.10;93.90;;;;;;7373508;19;20399;-50
2022/05/05 01:11:17;;;;;;;7.00;6.13;;;14.10;93.90;;;;;;7368691;19;20420;-48
2022/05/05 01:13:49;;;;;;;6.40;5.70;;;14.00;94.00;;;;;;7372812;19;20416;-48
2022/05/05 01:16:19;;;;;;;7.27;6.40;;;13.80;94.70;;;;;;7375333;19;20384;-48
2022/05/05 01:18:55;;;;;;;10.57;6.40;;;13.70;95.10;;;;;;7365723;19;20432;-48
2022/05/05 01:21:27;;;;;;;8.53;6.40;;;13.50;95.50;;;;;;7374228;19;20789;-47
2022/05/05 01:24:00;;;;;;;8.30;6.03;;;13.60;95.60;;;;;;7371927;19;20424;-48
2022/05/05 01:29:13;;;;;;;7.30;6.60;;;13.80;95.10;;;;;;7379152;19;20459;-48
2022/05/05 01:31:46;;;;;;;7.30;6.23;;;13.70;95.30;;;;;;7381438;19;20441;-48
2022/05/05 01:34:16;;;;;;;8.53;6.30;;;13.80;95.30;;;;;;7381302;19;20472;-48
2022/05/05 01:36:49;;;;;;;10.20;6.90;;;13.90;94.80;;;;;;7382154;19;20463;-48
2022/05/05 01:39:21;;;;;;;8.17;6.37;;;14.00;94.60;;;;;;7380174;19;20416;-50
2022/05/05 01:41:51;;;;;;;7.70;6.50;;;13.80;94.80;;;;;;7380624;19;20408;-48
2022/05/05 01:44:23;;;;;;;7.47;6.73;;;13.80;95.10;;;;;;7381200;19;20900;-48
2022/05/05 01:46:55;;;;;;;8.00;6.57;;;13.90;94.80;;;;;;7377104;19;20382;-50
2022/05/05 01:49:26;;;;;;;10.60;6.40;;;14.00;94.70;;;;;;7381437;19;20808;-48
2022/05/05 01:51:58;;;;;;;8.47;6.50;;;14.00;94.50;;;;;;7378667;19;20426;-48
2022/05/05 01:54:28;;;;;;;6.87;6.17;;;13.90;94.80;;;;;;7380041;19;20387;-50
2022/05/05 01:56:58;;;;;;;7.70;6.40;;;14.00;94.80;;;;;;7380885;19;20376;-49
2022/05/05 01:59:29;;;;;;;13.53;7.00;;;14.10;94.50;;;;;;7380205;19;20922;-48
2022/05/05 02:01:59;;;;;;;8.23;7.43;;;14.20;94.40;;;;;;7382276;19;20380;-48
2022/05/05 02:04:30;;;;;;;7.47;6.70;;;14.30;94.10;;;;;;7379707;19;20369;-48
2022/05/05 02:07:06;;;;;;;5.97;5.33;;;14.30;93.90;;;;;;7381188;19;20395;-48
2022/05/05 02:09:36;;;;;;;6.90;6.20;;;14.20;93.90;;;;;;7379359;19;20372;-48
2022/05/05 02:12:06;;;;;;;6.83;6.10;;;14.10;94.10;;;;;;7376433;19;20379;-49
2022/05/05 02:14:35;;;;;;;8.97;7.10;;;14.00;94.30;;;;;;7381567;19;20396;-48
2022/05/05 02:17:10;;;;;;;8.47;6.30;;;14.00;94.60;;;;;;7379012;19;20440;-50
2022/05/05 02:19:39;;;;;;;7.43;6.67;;;13.90;94.90;;;;;;7377268;19;20469;-48
2022/05/05 02:22:11;;;;;;;6.93;6.23;;;13.90;95.10;;;;;;7380682;19;20395;-47
2022/05/05 02:24:41;;;;;;;6.80;6.10;;;13.90;95.00;;;;;;7376588;19;21458;-50
2022/05/05 02:27:13;;;;;;;7.60;5.93;;;13.90;95.20;;;;;;7379175;19;20424;-49
2022/05/05 02:29:42;;;;;;;5.80;5.20;;;13.90;95.10;;;;;;7381064;19;20380;-48
2022/05/05 02:32:12;;;;;;;10.57;6.30;;;13.90;95.20;;;;;;7379050;19;20833;-48
2022/05/05 02:34:41;;;;;;;7.00;6.07;;;13.90;95.40;;;;;;7376286;19;20416;-49
2022/05/05 02:39:58;;;;;;;8.00;7.07;;;13.80;95.60;;;;;;7376333;19;20424;-50
2022/05/05 02:42:31;;;;;;;6.80;6.10;;;13.80;95.80;;;;;;7379625;19;20994;-48
2022/05/05 02:45:03;;;;;;;6.43;5.83;;;13.70;96.00;;;;;;7380412;19;20376;-48
2022/05/05 02:47:35;;;;;;;6.00;5.50;;;13.80;95.70;;;;;;7379199;19;20364;-48
2022/05/05 02:50:08;;;;;;;7.87;6.03;;;13.90;95.40;;;;;;7374468;19;20376;-49
2022/05/05 02:52:46;;;;;;;8.63;6.47;;;13.90;95.20;;;;;;7377036;19;20408;-48
2022/05/05 02:55:13;;;;;;;6.87;6.17;;;13.80;95.30;;;;;;7376688;19;20372;-48
2022/05/05 02:57:45;;;;;;;6.63;5.70;;;13.80;95.40;;;;;;7381321;19;20953;-48
2022/05/05 03:00:17;;;;;;;6.40;5.80;;;13.80;95.30;;;;;;7376842;19;20388;-49
2022/05/05 03:02:49;;;;;;;6.70;6.10;;;13.80;95.10;;;;;;7380831;19;20656;-48
2022/05/05 03:05:19;;;;;;;7.00;6.30;;;13.70;95.30;;;;;;7377987;19;20720;-49
2022/05/05 03:07:51;;;;;;;6.63;5.97;;;13.70;95.50;;;;;;7380578;19;20412;-48
2022/05/05 03:10:22;;;;;;;8.53;6.27;;;13.70;95.60;;;;;;7377081;19;20773;-48
2022/05/05 03:12:54;;;;;;;7.90;7.10;;;13.60;95.50;;;;;;7381136;19;20986;-48
2022/05/05 03:15:23;;;;;;;9.87;7.30;;;13.50;95.70;;;;;;7374824;19;20737;-48
2022/05/05 03:17:55;;;;;;;9.70;7.17;;;13.50;95.50;;;;;;7376877;19;20969;-48
2022/05/05 03:20:25;;;;;;;10.13;6.70;;;13.40;95.90;;;;;;7376056;19;20392;-48
2022/05/05 03:22:59;;;;;;;8.47;6.87;;;13.20;96.30;;;;;;7375807;19;20411;-49
2022/05/05 03:25:29;;;;;;;8.70;7.80;;;13.20;96.70;;;;;;7374242;19;20379;-48
2022/05/05 03:28:03;;;;;;;9.10;7.40;;;13.00;97.00;;;;;;7374566;19;20823;-48
2022/05/05 03:30:39;;;;;;;9.60;7.53;;;12.80;97.70;;;;;;7377268;19;20388;-48
2022/05/05 03:33:09;;;;;;;8.97;7.90;;;12.70;98.30;;;;;;7375207;19;20380;-48
2022/05/05 03:35:38;;;;;;;9.73;7.90;;;12.70;98.50;;;;;;7377741;19;20522;-50
2022/05/05 03:38:10;;;;;;;8.10;7.27;;;12.70;98.60;;;;;;7376828;19;20922;-48
2022/05/05 03:40:45;;;;;;;10.10;7.60;;;12.90;98.30;;;;;;7376258;19;20386;-48
2022/05/05 03:43:16;;;;;;;9.57;7.53;;;13.00;97.70;;;;;;7373753;19;20372;-48
2022/05/05 03:45:48;;;;;;;7.70;6.90;;;13.00;97.60;;;;;;7377248;19;20387;-50
2022/05/05 03:48:19;;;;;;;8.60;7.40;;;13.00;97.90;;;;;;7376332;19;20815;-48
2022/05/05 03:50:49;;;;;;;9.50;7.70;;;13.10;97.70;;;;;;7376432;19;20977;-48
2022/05/05 03:53:24;;;;;;;8.50;7.60;;;13.30;97.20;;;;;;7376007;19;20480;-48
2022/05/05 03:55:55;;;;;;;7.97;7.17;;;13.30;96.80;;;;;;7375828;19;20926;-49
2022/05/05 03:58:28;;;;;;;8.90;7.40;;;13.30;96.90;;;;;;7375099;19;20399;-47
2022/05/05 04:00:58;;;;;;;9.07;6.70;;;13.40;96.90;;;;;;7378126;19;20387;-46
2022/05/05 04:03:34;;;;;;;9.20;7.10;;;13.70;96.30;;;;;;7375025;19;20981;-49
2022/05/05 04:06:04;;;;;;;8.10;7.27;;;13.70;95.90;;;;;;7377853;19;20865;-49
2022/05/05 04:08:40;;;;;;;11.20;7.07;;;13.80;96.00;;;;;;7375368;19;20412;-49
2022/05/05 04:11:10;;;;;;;10.90;6.93;;;13.90;95.80;;;;;;7374377;19;20376;-49
2022/05/05 04:13:39;;;;;;;8.47;6.57;;;13.90;95.40;;;;;;7374611;19;20413;-49
2022/05/05 04:16:12;;;;;;;6.90;6.20;;;14.00;95.20;;;;;;7372863;19;20384;-49
2022/05/05 04:18:47;;;;;;;8.47;7.20;;;14.00;95.20;;;;;;7373887;19;20973;-50
2022/05/05 04:21:16;;;;;;;7.50;6.80;;;14.00;95.20;;;;;;7375873;19;20868;-49
2022/05/05 04:23:53;;;;;;;7.90;7.10;;;14.00;95.20;;;;;;7374158;19;20426;-49
2022/05/05 04:26:25;;;;;;;7.40;6.70;;;14.10;95.20;;;;;;7375453;19;20802;-48
2022/05/05 04:28:59;;;;;;;8.20;6.43;;;14.00;95.40;;;;;;7376359;19;20415;-47
2022/05/05 04:31:31;;;;;;;7.23;6.40;;;14.00;95.80;;;;;;7376678;19;20451;-39
2022/05/05 04:34:03;;;;;;;8.23;7.43;;;14.10;95.40;;;;;;7375159;19;20416;-39
2022/05/05 04:36:35;;;;;;;11.10;7.90;;;14.10;95.90;;;;;;7377349;19;20889;-39
2022/05/05 04:39:10;;;;;;;8.83;7.80;;;14.20;95.30;;;;;;7374287;19;20376;-39
2022/05/05 04:41:39;;;;;;;9.77;7.40;;;14.20;95.00;;;;;;7376380;19;20419;-40
2022/05/05 04:44:11;;;;;;;7.97;6.23;;;14.40;94.90;;;;;;7375031;19;20383;-40
2022/05/05 04:46:40;;;;;;;8.70;7.27;;;14.50;94.50;;;;;;7374446;19;20496;-40
2022/05/05 04:49:13;;;;;;;10.97;7.97;;;14.60;94.20;;;;;;7375820;19;20833;-40
2022/05/05 04:51:42;;;;;;;8.40;7.10;;;14.60;93.90;;;;;;7376829;19;20467;-40
2022/05/05 04:54:17;;;;;;;8.47;7.07;;;14.60;93.90;;;;;;7373915;19;20415;-40
2022/05/05 04:56:49;;;;;;;7.37;6.00;;;14.70;93.90;;;;;;7373251;19;20508;-40
2022/05/05 04:59:22;;;;;;;7.43;6.73;;;14.70;93.80;;;;;;7372838;19;20949;-40
2022/05/05 05:01:51;;;;;;;9.93;8.27;;;14.80;93.70;;;;;;7376933;19;20368;-48
2022/05/05 05:04:21;;;;;;;13.00;8.43;;;14.90;93.30;;;;;;7383208;19;20748;-48
2022/05/05 05:06:52;;;;;;;11.93;10.63;;;14.90;93.20;;;;;;7381438;19;20864;-48
2022/05/05 05:09:27;;;;;;;12.47;10.60;;;14.90;93.20;;;;;;7380127;19;20438;-48
2022/05/05 05:11:57;;;;;;;14.20;11.80;;;15.00;93.10;;;;;;7382928;19;20387;-48
2022/05/05 05:14:26;;;;;;;26.23;15.03;;;15.00;93.10;;;;;;7380864;19;20987;-48
2022/05/05 05:16:58;;;;;;;14.63;11.40;;;15.20;92.70;;;;;;7381865;19;20408;-48
2022/05/05 05:19:27;;;;;;;17.17;11.90;;;15.20;92.40;;;;;;7376325;19;20427;-49
2022/05/05 05:21:57;;;;;;;10.40;8.60;;;15.20;92.40;;;;;;7382599;19;21134;-48
2022/05/05 05:24:29;;;;;;;11.03;8.90;;;15.10;92.70;;;;;;7376163;19;20868;-48
2022/05/05 05:27:01;;;;;;;18.40;8.67;;;15.10;92.90;;;;;;7382610;19;20380;-48
2022/05/05 05:29:33;;;;;;;16.67;13.50;;;15.20;92.80;;;;;;7382990;19;20404;-48
2022/05/05 05:32:06;;;;;;;12.53;9.43;;;15.10;92.60;;;;;;7377073;19;20794;-48
2022/05/05 05:34:36;;;;;;;10.03;9.03;;;15.20;92.70;;;;;;7380496;19;20395;-48
2022/05/05 05:37:06;;;;;;;12.00;10.70;;;15.30;92.50;;;;;;7379084;19;20502;-49
2022/05/05 05:39:41;;;;;;;13.63;10.77;;;15.30;92.00;;;;;;7379493;19;20409;-48
2022/05/05 05:42:11;;;;;;;13.33;11.90;;;15.40;91.90;;;;;;7383004;19;20424;-48
2022/05/05 05:44:43;;;;;;;14.23;11.80;;;15.30;91.70;;;;;;7383091;19;20386;-48
2022/05/05 05:47:12;;;;;;;20.73;14.07;;;15.40;92.40;;;;;;7383113;19;20740;-48
2022/05/05 05:49:42;;;;;;;14.73;12.90;;;15.50;91.60;;;;;;7379928;19;20396;-48
2022/05/05 05:52:11;;;;;;;13.83;10.47;;;15.50;91.60;;;;;;7380856;19;20502;-48
2022/05/05 05:54:43;;;;;;;13.77;11.30;;;15.60;91.20;;;;;;7378953;19;20368;-48
2022/05/05 05:57:16;;;;;;;14.00;9.27;;;15.50;90.70;;;;;;7378226;19;21453;-48
2022/05/05 05:59:45;;;;;;;10.60;8.80;;;15.50;90.80;;;;;;7380228;19;20404;-49
2022/05/05 06:05:02;;;;;;;10.17;9.17;;;15.50;90.90;;;;;;7379469;19;20416;-49
2022/05/05 06:07:31;;;;;;;10.07;8.47;;;15.60;90.70;;;;;;7377153;19;20736;-49
2022/05/05 06:10:07;;;;;;;12.93;10.00;;;15.60;90.20;;;;;;7379148;19;20427;-48
2022/05/05 06:12:38;;;;;;;12.80;10.80;;;15.40;90.50;;;;;;7378898;19;21440;-48
2022/05/05 06:15:09;;;;;;;14.73;10.80;;;15.30;90.90;;;;;;7382562;19;20448;-49
2022/05/05 06:17:39;;;;;;;13.93;10.50;;;15.30;91.20;;;;;;7378432;19;20379;-50
2022/05/05 06:20:14;;;;;;;13.80;11.60;;;15.50;91.20;;;;;;7377381;19;20388;-48
2022/05/05 06:22:44;;;;;;;14.30;12.17;;;15.60;91.00;;;;;;7377404;19;20392;-48
2022/05/05 06:25:18;;;;;;;11.47;10.37;;;15.70;90.40;;;;;;7375375;19;20400;-48
2022/05/05 06:27:48;;;;;;;12.47;10.13;;;15.80;90.30;;;;;;7381084;19;20383;-48
2022/05/05 06:30:21;;;;;;;14.80;11.27;;;15.80;89.80;;;;;;7366819;19;20416;-48
2022/05/05 06:32:50;;;;;;;10.80;9.70;;;15.90;89.40;;;;;;7358338;19;20399;-49
2022/05/05 06:35:20;;;;;;;13.67;11.27;;;16.00;88.90;;;;;;7364760;19;20427;-48
2022/05/05 06:37:51;;;;;;;14.53;11.63;;;16.00;88.10;;;;;;7372546;19;20917;-47
2022/05/05 06:40:24;;;;;;;11.27;10.17;;;15.90;89.20;;;;;;7371686;19;20399;-48
2022/05/05 06:42:54;;;;;;;12.57;11.27;;;16.00;89.40;;;;;;7379603;19;20419;-48
2022/05/05 06:45:26;;;;;;;13.77;9.40;;;16.10;88.80;;;;;;7375323;19;21607;-47
2022/05/05 06:47:58;;;;;;;12.83;10.70;;;16.20;87.80;;;;;;7376659;19;20982;-47
2022/05/05 06:50:30;;;;;;;17.77;10.87;;;16.30;87.40;;;;;;7370708;19;20376;-47
2022/05/05 06:53:02;;;;;;;12.57;10.90;;;16.40;87.70;;;;;;7366315;19;20385;-47
2022/05/05 06:55:34;;;;;;;11.50;10.33;;;16.30;86.40;;;;;;7375257;19;20914;-47
2022/05/05 06:58:04;;;;;;;16.10;11.97;;;16.40;86.10;;;;;;7379796;19;20384;-47
2022/05/05 07:03:21;;;;;;;13.73;10.00;;;16.30;86.50;;;;;;7372444;19;20372;-47
2022/05/05 07:05:52;;;;;;;10.57;9.47;;;16.50;85.90;;;;;;7374056;19;20769;-47
2022/05/05 07:08:22;;;;;;;11.17;8.97;;;16.40;83.90;;;;;;7374851;19;20823;-48
2022/05/05 07:10:54;;;;;;;9.90;8.90;;;16.40;84.60;;;;;;7375341;19;20770;-47
2022/05/05 07:13:24;;;;;;;11.43;7.90;;;16.30;83.10;;;;;;7370444;19;20512;-46
2022/05/05 07:15:54;;;;;;;11.10;8.07;;;16.30;83.20;;;;;;7371346;19;20971;-47
2022/05/05 07:18:26;;;;;;;10.30;7.80;;;16.30;83.70;;;;;;7371882;19;20436;-47
2022/05/05 07:20:56;;;;;;;11.37;8.43;;;16.40;83.50;;;;;;7373660;19;20397;-48
2022/05/05 07:23:25;;;;;;;9.10;7.90;;;16.50;83.20;;;;;;7368970;19;20439;-47
2022/05/05 07:25:57;;;;;;;10.70;8.90;;;16.40;83.70;;;;;;7374783;19;20408;-47
2022/05/05 07:28:29;;;;;;;10.20;8.60;;;16.60;83.80;;;;;;7369249;19;20415;-47
2022/05/05 07:30:59;;;;;;;12.57;8.30;;;16.60;83.90;;;;;;7371995;19;20424;-47
2022/05/05 07:33:28;;;;;;;10.63;8.23;;;16.80;84.40;;;;;;7360668;19;20945;-47
2022/05/05 07:36:00;;;;;;;8.73;7.90;;;16.90;83.70;;;;;;7374535;19;20375;-47
2022/05/05 07:38:30;;;;;;;11.97;9.20;;;16.90;82.60;;;;;;7375139;19;20918;-47
2022/05/05 07:41:02;;;;;;;9.60;8.40;;;16.70;84.70;;;;;;7378570;19;20396;-39
2022/05/05 07:43:34;;;;;;;10.90;7.87;;;16.60;83.40;;;;;;7377142;19;21226;-39
2022/05/05 07:46:08;;;;;;;9.10;8.10;;;16.70;83.90;;;;;;7368866;19;20364;-39
2022/05/05 07:48:40;;;;;;;13.57;8.10;;;16.70;83.90;;;;;;7375634;19;20427;-39
2022/05/05 07:51:09;;;;;;;9.23;8.33;;;16.90;83.40;;;;;;7376132;19;20704;-39
2022/05/05 07:53:41;;;;;;;9.33;7.83;;;17.10;83.40;;;;;;7372112;19;20395;-39
2022/05/05 07:56:13;;;;;;;9.57;8.57;;;17.20;82.60;;;;;;7368513;19;20926;-39
2022/05/05 07:58:42;;;;;;;9.30;8.37;;;17.30;81.70;;;;;;7367779;19;20954;-39
2022/05/05 08:01:14;;;;;;;9.30;8.30;;;17.30;81.20;;;;;;7375826;19;20421;-39
2022/05/05 08:03:45;;;;;;;13.10;9.63;;;17.20;82.40;;;;;;7373502;19;20544;-39
2022/05/05 08:06:15;;;;;;;10.43;9.43;;;17.10;81.00;;;;;;7368625;19;20423;-39
2022/05/05 08:08:47;;;;;;;10.20;8.93;;;17.10;81.40;;;;;;7374532;19;20387;-39
2022/05/05 08:11:19;;;;;;;9.97;8.30;;;17.10;82.00;;;;;;7375980;19;20376;-47
2022/05/05 08:13:49;;;;;;;10.80;9.60;;;17.20;82.00;;;;;;7374545;19;20376;-47
2022/05/05 08:16:21;;;;;;;11.87;9.80;;;17.20;83.00;;;;;;7371078;19;20409;-48
2022/05/05 08:18:51;;;;;;;9.67;8.67;;;17.30;81.70;;;;;;7367460;19;21169;-47
2022/05/05 08:21:20;;;;;;;12.03;10.20;;;17.30;82.30;;;;;;7370790;19;20413;-47
2022/05/05 08:28:27;;;;;;;13.40;9.00;;;17.20;81.60;;;;;;7370388;19;20805;-47
2022/05/05 08:29:24;;;;;;;10.67;9.47;;;17.20;82.30;;;;;;7372617;19;20433;-47
2022/05/05 08:31:56;;;;;;;15.60;10.70;;;17.20;82.50;;;;;;7365752;19;20369;-47
2022/05/05 08:34:28;;;;;;;12.30;9.57;;;17.30;83.00;;;;;;7371165;19;20376;-47
2022/05/05 08:37:00;;;;;;;11.90;10.43;;;17.20;80.30;;;;;;7383863;19;20981;-47
2022/05/05 08:39:30;;;;;;;12.23;9.60;;;17.10;81.80;;;;;;7380301;19;20416;-47
2022/05/05 08:42:06;;;;;;;10.77;9.67;;;17.30;80.70;;;;;;7375458;19;20941;-47
2022/05/05 08:44:38;;;;;;;13.17;10.20;;;17.50;79.80;;;;;;7373443;19;20372;-47
2022/05/05 08:47:19;;;;;;;16.07;10.77;;;17.60;78.60;;;;;;7373214;19;20408;-48
2022/05/05 08:49:48;;;;;;;12.57;9.60;;;17.90;77.20;;;;;;7370500;19;20422;-47
2022/05/05 08:52:25;;;;;;;11.07;9.97;;;18.00;76.80;;;;;;7379959;19;20420;-47
2022/05/05 08:54:57;;;;;;;11.80;10.30;;;18.30;75.80;;;;;;7379546;19;20957;-48
2022/05/05 08:57:32;;;;;;;12.10;10.70;;;18.40;75.40;;;;;;7375770;19;20415;-47
2022/05/05 09:00:02;;;;;;;15.77;12.73;;;18.60;74.30;;;;;;7379171;19;20385;-47
2022/05/05 09:02:33;;;;;;;13.83;11.60;;;18.60;74.00;;;;;;7371360;19;20921;-49
2022/05/05 09:05:03;;;;;;;14.23;12.80;;;18.50;76.50;;;;;;7374701;19;20904;-47
2022/05/05 09:07:50;;;;;;;12.57;11.30;;;18.40;74.70;;;;;;7371374;19;20655;-47
2022/05/05 09:10:22;;;;;;;17.67;13.90;;;18.40;74.50;;;;;;7381392;19;20418;-47
2022/05/05 09:13:03;;;;;;;15.80;13.53;;;18.30;73.90;;;;;;7368719;19;20380;-47
2022/05/05 09:15:36;;;;;;;15.10;13.60;;;18.00;74.40;;;;;;7378619;19;20374;-47
2022/05/05 09:18:16;;;;;;;17.87;14.97;;;17.90;75.10;;;;;;7374169;19;20491;-47
2022/05/05 09:20:47;;;;;;;15.80;13.37;;;17.90;76.40;;;;;;7370971;19;20918;-47
2022/05/05 09:23:32;;;;;;;15.03;12.73;;;17.90;77.20;;;;;;7369467;19;20432;-49
2022/05/05 09:26:03;;;;;;;18.47;12.47;;;17.90;78.30;;;;;;7370600;19;20901;-47
2022/05/05 09:28:38;;;;;;;15.00;13.37;;;17.90;78.30;;;;;;7374348;19;21252;-49
2022/05/05 09:31:13;;;;;;;15.50;13.13;;;18.00;77.50;;;;;;7382159;19;21359;-47
2022/05/05 09:33:44;;;;;;;15.53;13.90;;;17.90;77.10;;;;;;7373994;19;20431;-47
2022/05/05 09:36:19;;;;;;;14.27;12.77;;;17.90;76.40;;;;;;7378476;19;20383;-49
2022/05/05 09:38:53;;;;;;;14.50;12.97;;;18.00;76.30;;;;;;7369185;19;20377;-47
2022/05/05 09:41:23;;;;;;;16.07;14.43;;;18.00;77.50;;;;;;7379338;19;20456;-47
2022/05/05 09:43:56;;;;;;;18.33;15.00;;;17.80;78.20;;;;;;7378571;19;20376;-47
2022/05/05 09:46:36;;;;;;;16.90;14.80;;;17.60;78.90;;;;;;7378769;19;20372;-47
2022/05/05 09:49:09;;;;;;;15.10;13.50;;;17.40;79.70;;;;;;7377607;19;20415;-47
2022/05/05 09:57:39;;;;;;;16.80;15.00;;;17.50;79.70;;;;;;7381490;19;20412;-48
2022/05/05 09:57:54;;;;;;;18.53;14.73;;;17.60;77.20;;;;;;7379597;19;20383;-47
2022/05/05 10:00:44;;;;;;;17.37;14.10;;;17.60;76.50;;;;;;7377464;19;20384;-47
2022/05/05 10:06:03;;;;;;;15.83;14.37;;;17.80;77.80;;;;;;7378987;19;20933;-47
2022/05/05 10:08:40;;;;;;;16.17;14.43;;;17.90;77.30;;;;;;7380707;19;20375;-47
2022/05/05 10:11:10;;;;;;;15.33;13.73;;;18.10;76.00;;;;;;7377429;19;20371;-48
2022/05/05 10:13:45;;;;;;;16.13;14.40;;;18.20;75.10;;;;;;7378038;19;20384;-47
2022/05/05 10:16:17;;;;;;;15.87;13.57;;;18.20;73.80;;;;;;7377649;19;20376;-47
2022/05/05 10:18:47;;;;;;;18.30;14.80;;;18.50;73.40;;;;;;7378487;19;20436;-46
2022/05/05 10:21:25;;;;;;;15.20;13.60;;;18.70;72.30;;;;;;7369067;19;21042;-49
2022/05/05 10:24:04;;;;;;;16.70;14.33;;;18.80;70.30;;;;;;7368350;19;20437;-48
2022/05/05 10:26:38;;;;;;;19.13;15.27;;;18.90;69.80;;;;;;7374958;19;20383;-47
2022/05/05 10:29:38;;;;;;;19.17;16.50;;;18.90;69.20;;;;;;7376493;19;21403;-47
2022/05/05 10:32:16;;;;;;;17.60;15.80;;;18.80;70.20;;;;;;7367879;19;20419;-47
2022/05/05 10:34:49;;;;;;;21.20;17.73;;;18.90;69.20;;;;;;7376097;19;20376;-47
2022/05/05 10:37:22;;;;;;;17.97;15.57;;;18.70;68.80;;;;;;7376366;19;20415;-47
2022/05/05 10:39:53;;;;;;;20.13;16.43;;;18.60;70.60;;;;;;7374266;19;21131;-47
2022/05/05 10:42:38;;;;;;;17.30;15.50;;;18.60;70.10;;;;;;7361424;19;20389;-47
2022/05/05 10:45:16;;;;;;;20.53;17.23;;;18.80;69.10;;;;;;7371169;19;20823;-47
2022/05/05 10:48:21;;;;;;;19.80;16.97;;;18.80;68.00;;;;;;7366158;19;20842;-47
2022/05/05 10:51:06;;;;;;;20.90;17.47;;;18.70;70.20;;;;;;7374937;19;20475;-48
2022/05/05 10:53:43;;;;;;;19.90;17.80;;;18.70;69.10;;;;;;7372960;19;20388;-47
2022/05/05 10:56:28;;;;;;;17.43;15.73;;;18.70;69.60;;;;;;7375217;19;20784;-47
2022/05/05 10:59:06;;;;;;;18.40;16.03;;;18.60;70.10;;;;;;7372906;19;20465;-47
2022/05/05 11:02:04;;;;;;;20.50;17.30;;;18.60;70.40;;;;;;7377852;19;20380;-47
2022/05/05 11:04:34;;;;;;;20.73;18.53;;;18.60;72.00;;;;;;7377829;19;20379;-47
2022/05/05 11:07:39;;;;;;;24.07;18.70;;;18.50;73.80;;;;;;7379469;19;20391;-47
2022/05/05 11:10:31;;;;;;;20.90;18.20;;;18.20;75.00;;;;;;7379465;19;20372;-47
2022/05/05 11:13:03;;;;;;;20.50;17.67;;;18.20;77.70;;;;;;7377385;19;20384;-47
2022/05/05 11:23:49;;;;;;;19.00;16.90;;;18.30;78.00;;;;;;7377468;19;20423;-47
2022/05/05 11:26:23;;;;;;;21.40;19.30;;;18.20;77.30;;;;;;7372187;19;20375;-47
2022/05/05 11:28:57;;;;;;;23.53;17.73;;;18.20;80.20;;;;;;7377952;19;20384;-47
2022/05/05 11:31:28;;;;;;;19.90;17.40;;;18.20;80.10;;;;;;7379336;19;20375;-47
2022/05/05 11:34:03;;;;;;;22.60;18.23;;;18.20;78.60;;;;;;7379408;19;20380;-47
2022/05/05 11:36:33;;;;;;;21.80;17.60;;;18.20;79.00;;;;;;7378136;19;20373;-49
2022/05/05 11:39:09;;;;;;;26.53;19.83;;;18.30;80.70;;;;;;7379016;19;20739;-47
2022/05/05 11:41:39;;;;;;;22.70;18.70;;;18.30;79.10;;;;;;7376027;19;20906;-47
2022/05/05 11:44:15;;;;;;;19.73;16.67;;;18.10;81.90;;;;;;7377987;19;20841;-48
2022/05/05 11:46:44;;;;;;;20.07;17.97;;;18.10;81.10;;;;;;7378774;19;20423;-47
2022/05/05 11:49:14;;;;;;;20.33;18.07;;;18.20;82.80;;;;;;7372794;19;20420;-47
2022/05/05 11:51:48;;;;;;;20.07;18.07;;;18.20;82.30;;;;;;7374433;19;20368;-47
2022/05/05 11:54:28;;;;;;;22.80;19.67;;;18.30;82.60;;;;;;7366336;19;20479;-47
2022/05/05 11:56:58;;;;;;;19.97;17.87;;;18.40;81.70;;;;;;7362523;19;20519;-47
2022/05/05 12:02:15;;;;;;;21.37;17.10;;;18.50;82.40;;;;;;7360604;19;20379;-46
2022/05/05 12:04:49;;;;;;;19.53;17.03;;;18.60;82.00;;;;;;7368704;19;20434;-47
2022/05/05 12:07:25;;;;;;;22.80;18.70;;;18.60;82.30;;;;;;7375436;19;20913;-47
2022/05/05 12:10:07;;;;;;;20.80;16.83;;;18.70;81.20;;;;;;7365396;19;20383;-47
2022/05/05 12:12:38;;;;;;;17.80;15.77;;;18.60;81.60;;;;;;7372394;19;20409;-47
2022/05/05 12:15:13;;;;;;;18.47;16.47;;;18.60;81.30;;;;;;7360486;19;20777;-47
2022/05/05 12:17:50;;;;;;;25.30;18.30;;;18.50;80.30;;;;;;7364645;19;20734;-47
2022/05/05 12:20:21;;;;;;;23.53;19.13;;;18.60;82.20;;;;;;7362923;19;21116;-47
2022/05/05 12:22:57;;;;;;;23.43;19.07;;;18.30;80.30;;;;;;7364157;19;20437;-47
2022/05/05 12:25:31;;;;;;;21.90;18.50;;;18.50;81.70;;;;;;7358657;19;20505;-47
2022/05/05 12:28:09;;;;;;;24.63;20.17;;;18.50;81.30;;;;;;7367552;19;20804;-46
2022/05/05 12:30:39;;;;;;;22.03;18.87;;;18.50;79.90;;;;;;7368278;19;20376;-51
2022/05/05 12:33:12;;;;;;;24.13;19.20;;;18.60;80.20;;;;;;7360086;19;20364;-46
2022/05/05 12:35:46;;;;;;;23.07;18.47;;;18.70;78.10;;;;;;7368492;19;20419;-48
2022/05/05 12:38:19;;;;;;;26.03;19.60;;;18.80;78.20;;;;;;7369212;19;20368;-46
2022/05/05 12:41:08;;;;;;;31.00;21.23;;;18.70;79.10;;;;;;7373325;19;20384;-46
2022/05/05 12:43:42;;;;;;;21.77;18.53;;;18.70;79.70;;;;;;7367347;19;20715;-46
2022/05/05 12:46:11;;;;;;;30.50;19.93;;;18.70;78.60;;;;;;7364339;19;20384;-46
2022/05/05 12:48:42;;;;;;;23.87;20.00;;;18.90;78.20;;;;;;7363389;19;21126;-47
2022/05/05 12:51:19;;;;;;;25.20;18.60;;;19.10;77.10;;;;;;7365135;19;20878;-46
2022/05/05 13:01:59;;;;;;;23.00;17.83;;;20.10;71.00;;;;;;7353469;19;20375;-44
2022/05/05 13:04:30;;;;;;;24.93;18.57;;;20.00;70.10;;;;;;7370799;19;20392;-46
2022/05/05 13:07:02;;;;;;;21.87;18.23;;;19.60;71.00;;;;;;7373102;19;20890;-45
2022/05/05 13:09:32;;;;;;;25.10;18.80;;;19.60;72.70;;;;;;7372228;19;20379;-43
2022/05/05 13:12:04;;;;;;;24.27;19.77;;;19.60;73.30;;;;;;7372248;19;20957;-44
2022/05/05 13:14:38;;;;;;;21.20;17.60;;;19.60;73.00;;;;;;7373372;19;20380;-44
2022/05/05 13:17:07;;;;;;;25.60;19.10;;;19.70;72.90;;;;;;7371897;19;20379;-44
2022/05/05 13:19:37;;;;;;;24.50;18.70;;;20.00;72.30;;;;;;7339748;19;20466;-45
2022/05/05 13:22:09;;;;;;;24.80;17.13;;;20.20;71.80;;;;;;7373320;19;20778;-48
2022/05/05 13:24:39;;;;;;;22.90;18.03;;;20.30;70.80;;;;;;7376997;19;20416;-46
2022/05/05 13:27:16;;;;;;;20.00;15.93;;;20.60;70.20;;;;;;7378859;19;20367;-44
2022/05/05 13:29:46;;;;;;;20.03;16.87;;;20.80;68.30;;;;;;7377383;19;20428;-45
2022/05/05 13:32:18;;;;;;;24.93;16.97;;;21.00;65.90;;;;;;7377649;19;20395;-45
2022/05/05 13:34:52;;;;;;;23.70;17.87;;;21.10;65.20;;;;;;7378156;19;20733;-44
2022/05/05 13:37:22;;;;;;;19.83;17.00;;;21.20;64.70;;;;;;7380358;19;20758;-46
2022/05/05 13:39:52;;;;;;;20.50;16.40;;;21.20;65.00;;;;;;7381576;19;21344;-44
2022/05/05 13:42:24;;;;;;;19.97;16.57;;;21.20;65.80;;;;;;7362431;19;20994;-44
2022/05/05 13:44:56;;;;;;;23.33;18.10;;;21.20;65.00;;;;;;7376626;19;20427;-45
2022/05/05 13:47:26;;;;;;;20.57;17.93;;;21.00;65.10;;;;;;7378914;19;20380;-44